Hodges Dam (1105, 616) Station Data

Red Flag Warning: No
Fire Weather Zone: 258
SDGE Region: North East
Lat/Lon: 33.044/-117.135

Observations

Time Wind Speed/Gust Temp(F) RH Fuel Moist Fuel Temp(F) Dewpt(F) Tmax(F) Tmin(F) Accum Precip 10-min Precip SL Press(mb)
4/30 12:00am 21 12 G 15 61° 33% - - 32° 81.9° 54.8° - - -
4/29 11:50pm 23 11 G 14 61° 33% - - 32° 81.9° 54.8° - - -
4/29 11:40pm 24 10 G 13 61° 32% - - 31° 81.9° 54.8° - - -
4/29 11:30pm 29 10 G 13 61° 33% - - 32° 81.9° 54.8° - - -
4/29 11:20pm 28 10 G 14 61° 38% - - 35° 81.9° 54.8° - - -
4/29 11:10pm 39 12 G 14 61° 37% - - 35° 81.9° 54.8° - - -
4/29 11:00pm 39 11 G 13 62° 34% - - 34° 81.9° 54.8° - - -
4/29 10:50pm 36 11 G 13 63° 31% - - 32° 81.9° 54.8° - - -
4/29 10:40pm 24 10 G 12 63° 31% - - 32° 81.9° 54.8° - - -
4/29 10:30pm 33 10 G 12 63° 32% - - 33° 81.9° 54.8° - - -
4/29 10:20pm 33 10 G 12 63° 32% - - 33° 81.9° 54.8° - - -
4/29 10:10pm 33 9 G 10 64° 32% - - 33° 81.9° 54.8° - - -
4/29 10:00pm 30 8 G 10 64° 28% - - 31° 81.9° 54.8° - - -
4/29 9:50pm 31 5 G 9 63° 30% - - 31° 81.9° 54.8° - - -
4/29 9:40pm 24 2 G 4 65° 26% - - 29° 81.9° 54.8° - - -
4/29 9:30pm 358 2 G 3 66° 25% - - 29° 81.9° 54.8° - - -
4/29 9:20pm 273 1 G 3 65° 26% - - 29° 81.9° 54.8° - - -
4/29 9:10pm 202 1 G 3 66° 25% - - 29° 81.9° 54.8° - - -
4/29 9:00pm 230 2 G 5 66° 26% - - 30° 81.9° 54.8° - - -
4/29 8:50pm 217 3 G 8 66° 26% - - 30° 81.9° 54.8° - - -
4/29 8:40pm 212 4 G 10 66° 26% - - 29° 81.9° 54.8° - - -
4/29 8:30pm 202 8 G 14 67° 24% - - 28° 81.9° 54.8° - - -
4/29 8:20pm 209 4 G 9 67° 24% - - 29° 81.9° 54.8° - - -
4/29 8:10pm 203 8 G 15 67° 23% - - 28° 81.9° 54.8° - - -
4/29 8:00pm 194 8 G 14 68° 22% - - 28° 81.9° 54.8° - - -
4/29 7:50pm 196 4 G 12 68° 23% - - 28° 81.9° 54.8° - - -
4/29 7:40pm 204 3 G 8 68° 24% - - 29° 81.9° 54.8° - - -
4/29 7:30pm 207 4 G 7 68° 24% - - 30° 81.9° 54.8° - - -
4/29 7:20pm 223 3 G 9 69° 25% - - 31° 81.9° 54.8° - - -
4/29 7:10pm 201 7 G 12 69° 25% - - 32° 81.9° 54.8° - - -
4/29 7:00pm 214 10 G 15 70° 27% - - 35° 81.9° 54.8° - - -
4/29 6:50pm 210 8 G 13 71° 25% - - 34° 81.9° 54.8° - - -
4/29 6:40pm 207 10 G 13 72° 23% - - 32° 81.9° 54.8° - - -
4/29 6:30pm 220 11 G 16 73° 21% - - 30° 81.9° 54.8° - - -
4/29 6:20pm 220 12 G 20 73° 20% - - 30° 81.9° 54.8° - - -
4/29 6:10pm 212 12 G 17 74° 21% - - 31° 81.9° 54.8° - - -
4/29 6:00pm 213 12 G 18 74° 20% - - 31° 81.9° 54.8° - - -
4/29 5:50pm 222 12 G 18 74° 19% - - 30° 81.9° 54.8° - - -
4/29 5:40pm 222 13 G 19 75° 18% - - 29° 81.9° 54.8° - - -
4/29 5:30pm 221 14 G 20 75° 16% - - 26° 81.9° 54.8° - - -
4/29 5:20pm 221 14 G 20 75° 16% - - 26° 81.9° 54.8° - - -
4/29 5:10pm 222 13 G 20 75° 15% - - 25° 81.9° 54.8° - - -
4/29 5:00pm 222 15 G 22 75° 15% - - 24° 81.9° 54.8° - - -
4/29 4:50pm 222 15 G 21 75° 16% - - 25° 81.9° 54.8° - - -
4/29 4:40pm 230 12 G 21 75° 18% - - 29° 81.9° 54.8° - - -
4/29 4:30pm 227 13 G 21 75° 18% - - 28° 81.9° 54.8° - - -
4/29 4:20pm 220 15 G 22 76° 17% - - 28° 81.9° 54.8° - - -
4/29 4:10pm 223 14 G 24 77° 14% - - 25° 81.9° 54.8° - - -
4/29 4:00pm 225 13 G 21 78° 11% - - 18° 81.9° 54.8° - - -
4/29 3:50pm 221 14 G 20 77° 10% - - 16° 81.9° 54.8° - - -
4/29 3:40pm 218 14 G 22 78° 10% - - 18° 81.9° 54.8° - - -
4/29 3:30pm 229 12 G 19 77° 11% - - 18° 81.9° 54.8° - - -
4/29 3:20pm 218 14 G 20 78° 12% - - 21° 81.9° 54.8° - - -
4/29 3:10pm 214 13 G 20 77° 12% - - 20° 81.9° 54.8° - - -
4/29 3:00pm 219 13 G 21 78° 13% - - 22° 81.9° 54.8° - - -
4/29 2:50pm 217 14 G 22 77° 12% - - 21° 81.9° 54.8° - - -
4/29 2:40pm 217 14 G 20 77° 11% - - 20° 81.9° 54.8° - - -
4/29 2:30pm 220 14 G 18 77° 11% - - 19° 81.9° 54.8° - - -
4/29 2:20pm 219 14 G 21 77° 12% - - 21° 81.9° 54.8° - - -
4/29 2:10pm 210 16 G 23 77° 15% - - 25° 81.9° 54.8° - - -
4/29 2:00pm 212 14 G 19 77° 15% - - 26° 81.9° 54.8° - - -
4/29 1:50pm 215 14 G 19 76° 16% - - 26° 81.9° 54.8° - - -
4/29 1:40pm 214 15 G 19 76° 13% - - 22° 81.9° 54.8° - - -
4/29 1:30pm 217 14 G 19 76° 14% - - 23° 81.9° 54.8° - - -
4/29 1:20pm 218 14 G 21 76° 15% - - 25° 81.9° 54.8° - - -
4/29 1:10pm 212 14 G 18 76° 19% - - 31° 81.9° 54.8° - - -
4/29 1:00pm 218 15 G 22 76° 19% - - 31° 81.9° 54.8° - - -
4/29 12:50pm 198 16 G 26 77° 15% - - 27° 81.9° 54.8° - - -
4/29 12:40pm 157 12 G 21 78° 10% - - 15° 81.9° 54.8° - - -
4/29 12:30pm 52 9 G 19 80° 6% - - 81.9° 54.8° - - -
4/29 12:20pm 56 9 G 22 81° 6% - - 81.9° 54.8° - - -
4/29 12:10pm 72 8 G 19 80° 6% - - 81.7° 54.8° - - -
4/29 12:00pm 45 11 G 21 80° 6% - - 80.4° 54.8° - - -
4/29 11:50am 22 7 G 13 79° 6% - - 80.4° 54.8° - - -
4/29 11:40am 63 7 G 19 79° 6% - - 80.4° 54.8° - - -
4/29 11:30am 52 8 G 14 78° 7% - - 79.7° 54.8° - - -
4/29 11:20am 55 12 G 18 78° 7% - - 79.7° 54.8° - - -
4/29 11:10am 24 5 G 12 78° 7% - - 10° 79.7° 54.8° - - -
4/29 11:00am 57 7 G 15 79° 8% - - 12° 79.7° 54.8° - - -
4/29 10:50am 81 4 G 9 78° 8% - - 11° 79.2° 54.8° - - -
4/29 10:40am 41 4 G 11 78° 8% - - 13° 78.8° 54.8° - - -
4/29 10:30am 54 5 G 13 77° 8% - - 11° 78.6° 54.8° - - -
4/29 10:20am 33 8 G 15 76° 9% - - 13° 76.9° 54.8° - - -
4/29 10:10am 43 7 G 13 76° 10% - - 15° 76.8° 54.8° - - -
4/29 10:00am 72 3 G 6 76° 11% - - 18° 76.4° 54.8° - - -
4/29 9:50am 62 6 G 11 75° 12% - - 18° 75.4° 54.8° - - -
4/29 9:40am 76 3 G 7 74° 12% - - 19° 75.3° 54.8° - - -
4/29 9:30am 60 4 G 8 73° 13% - - 19° 74.6° 54.8° - - -
4/29 9:20am 70 5 G 10 72° 13% - - 19° 72.7° 54.8° - - -
4/29 9:10am 63 5 G 8 71° 14% - - 20° 72.3° 54.8° - - -
4/29 9:00am 56 5 G 7 70° 15% - - 20° 71° 54.8° - - -
4/29 8:50am 43 6 G 9 69° 20% - - 25° 69.8° 54.8° - - -
4/29 8:40am 39 7 G 9 67° 22% - - 27° 68.4° 54.8° - - -
4/29 8:30am 35 7 G 9 67° 21% - - 26° 67.6° 54.8° - - -
4/29 8:20am 38 8 G 12 67° 19% - - 23° 67.6° 54.8° - - -
4/29 8:10am 39 7 G 9 67° 20% - - 25° 67.6° 54.8° - - -
4/29 8:00am 35 8 G 12 65° 23% - - 26° 66.2° 54.8° - - -
4/29 7:50am 32 9 G 11 64° 25% - - 27° 64.7° 54.8° - - -
4/29 7:40am 33 10 G 12 63° 29% - - 30° 63.9° 54.8° - - -
4/29 7:30am 30 10 G 12 62° 32% - - 32° 63.1° 54.8° - - -
4/29 7:20am 35 9 G 13 61° 40% - - 36° 63.1° 54.8° - - -
4/29 7:10am 39 9 G 13 60° 36% - - 33° 63.1° 54.8° - - -
4/29 7:00am 35 8 G 12 60° 33% - - 31° 63.1° 54.8° - - -
4/29 6:50am 32 8 G 12 60° 36% - - 32° 63.1° 54.8° - - -
4/29 6:40am 35 9 G 11 59° 36% - - 32° 63.1° 54.8° - - -
4/29 6:30am 35 8 G 10 61° 30% - - 29° 63.1° 54.8° - - -
4/29 6:20am 31 7 G 8 61° 26% - - 26° 63.1° 54.8° - - -
4/29 6:10am 33 9 G 11 58° 41% - - 34° 60.8° 54.8° - - -
4/29 6:00am 40 9 G 12 57° 52% - - 39° 60.8° 54.8° - - -
4/29 5:50am 37 8 G 10 59° 39% - - 34° 60.8° 54.8° - - -
4/29 5:40am 30 9 G 13 59° 40% - - 35° 60.8° 54.8° - - -
4/29 5:30am 33 10 G 12 59° 43% - - 36° 60.8° 54.8° - - -
4/29 5:20am 33 9 G 11 59° 40% - - 35° 60.8° 54.8° - - -
4/29 5:10am 32 8 G 10 60° 40% - - 35° 60.8° 54.8° - - -
4/29 5:00am 33 8 G 10 59° 45% - - 37° 60.8° 54.8° - - -
4/29 4:50am 35 9 G 11 57° 56% - - 41° 60.8° 54.8° - - -
4/29 4:40am 34 9 G 12 57° 60% - - 43° 60.8° 54.8° - - -
4/29 4:30am 33 9 G 12 58° 54% - - 41° 60.8° 54.8° - - -
4/29 4:20am 30 10 G 12 59° 53% - - 41° 60.8° 54.8° - - -
4/29 4:10am 26 10 G 13 59° 51% - - 41° 60.8° 54.8° - - -
4/29 4:00am 28 11 G 13 59° 53% - - 42° 60.1° 54.8° - - -
4/29 3:50am 25 11 G 14 59° 57% - - 43° 60.1° 54.8° - - -
4/29 3:40am 26 11 G 13 58° 60% - - 44° 59.8° 54.8° - - -
4/29 3:30am 27 11 G 14 57° 64% - - 45° 59.8° 54.8° - - -
4/29 3:20am 25 13 G 16 57° 67% - - 46° 59.8° 54.8° - - -
4/29 3:10am 24 14 G 16 57° 65% - - 46° 59.8° 54.8° - - -
4/29 3:00am 25 13 G 15 57° 66% - - 46° 59.8° 54.8° - - -
4/29 2:50am 22 12 G 16 56° 75% - - 48° 59.8° 54.8° - - -
4/29 2:40am 27 13 G 17 55° 79% - - 49° 59.8° 54.8° - - -
4/29 2:30am 31 15 G 18 55° 80% - - 49° 59.8° 54.8° - - -
4/29 2:20am 29 15 G 17 56° 79% - - 49° 59.8° 55.1° - - -
4/29 2:10am 35 16 G 20 56° 76% - - 49° 59.8° 55.4° - - -
4/29 2:00am 26 13 G 17 58° 65% - - 46° 59.8° 56.5° - - -
4/29 1:50am 24 9 G 14 58° 67% - - 47° 59.8° 56.5° - - -
4/29 1:40am 18 9 G 11 58° 70% - - 48° 59.8° 56.5° - - -
4/29 1:30am 17 10 G 12 58° 70% - - 48° 59.8° 56.5° - - -
4/29 1:20am 15 10 G 12 58° 71% - - 49° 59.8° 56.5° - - -
4/29 1:10am 24 11 G 13 57° 74% - - 49° 59.8° 56.5° - - -
4/29 1:00am 34 9 G 13 57° 74% - - 49° 59.8° 56.7° - - -
4/29 12:50am 30 6 G 8 58° 69% - - 49° 59.8° 57.5° - - -
4/29 12:40am 24 7 G 11 59° 67% - - 48° 59.8° 57.6° - - -
4/29 12:30am 19 10 G 13 58° 71% - - 49° 59.1° 57.6° - - -
4/29 12:20am 25 11 G 14 58° 71% - - 49° 59° 57.6° - - -
4/29 12:10am 31 8 G 11 59° 70% - - 49° 59° 58° - - -
4/29 12:00am 36 7 G 10 58° 73% - - 50° 74.3° 54.5° - - -
4/28 11:50pm 37 7 G 9 58° 73% - - 50° 74.3° 54.5° - - -
4/28 11:40pm 37 5 G 7 59° 70% - - 49° 74.3° 54.5° - - -
4/28 11:30pm 36 7 G 9 59° 69% - - 49° 74.3° 54.5° - - -
4/28 11:20pm 38 7 G 10 59° 69% - - 49° 74.3° 54.5° - - -
4/28 11:10pm 40 6 G 8 59° 69% - - 49° 74.3° 54.5° - - -
4/28 11:00pm 38 8 G 9 59° 67% - - 48° 74.3° 54.5° - - -
4/28 10:50pm 38 5 G 9 60° 65% - - 48° 74.3° 54.5° - - -
4/28 10:40pm 38 6 G 8 60° 65% - - 48° 74.3° 54.5° - - -
4/28 10:30pm 360 3 G 4 61° 57% - - 46° 74.3° 54.5° - - -
4/28 10:20pm 339 2 G 5 62° 57% - - 46° 74.3° 54.5° - - -
4/28 10:10pm 338 0 G 2 62° 57% - - 47° 74.3° 54.5° - - -
4/28 10:00pm 2 2 G 4 61° 59% - - 47° 74.3° 54.5° - - -
4/28 9:50pm 14 2 G 4 62° 57% - - 46° 74.3° 54.5° - - -
4/28 9:40pm 326 1 G 5 63° 55% - - 46° 74.3° 54.5° - - -
4/28 9:30pm 303 2 G 4 62° 56% - - 46° 74.3° 54.5° - - -
4/28 9:20pm 323 2 G 6 63° 56% - - 47° 74.3° 54.5° - - -
4/28 9:10pm 350 3 G 6 63° 57% - - 47° 74.3° 54.5° - - -
4/28 9:00pm 351 4 G 5 63° 55% - - 47° 74.3° 54.5° - - -
4/28 8:50pm 348 4 G 6 63° 55% - - 47° 74.3° 54.5° - - -
4/28 8:40pm 19 4 G 6 63° 57% - - 47° 74.3° 54.5° - - -
4/28 8:30pm 148 1 G 3 63° 57% - - 47° 74.3° 54.5° - - -
4/28 8:20pm 233 1 G 3 63° 56% - - 47° 74.3° 54.5° - - -
4/28 8:10pm 269 1 G 2 63° 56% - - 47° 74.3° 54.5° - - -
4/28 8:00pm 277 1 G 3 63° 56% - - 47° 74.3° 54.5° - - -
4/28 7:50pm 235 2 G 5 63° 56% - - 47° 74.3° 54.5° - - -
4/28 7:40pm 212 5 G 7 64° 54% - - 47° 74.3° 54.5° - - -
4/28 7:30pm 210 4 G 6 65° 52% - - 47° 74.3° 54.5° - - -
4/28 7:20pm 209 6 G 12 65° 50% - - 46° 74.3° 54.5° - - -
4/28 7:10pm 203 8 G 12 66° 47% - - 45° 74.3° 54.5° - - -
4/28 7:00pm 209 7 G 11 66° 46% - - 45° 74.3° 54.5° - - -
4/28 6:50pm 213 8 G 12 67° 44% - - 44° 74.3° 54.5° - - -
4/28 6:40pm 214 11 G 17 67° 44% - - 44° 74.3° 54.5° - - -
4/28 6:30pm 212 10 G 18 67° 43% - - 44° 74.3° 54.5° - - -
4/28 6:20pm 215 11 G 18 68° 41% - - 43° 74.3° 54.5° - - -
4/28 6:10pm 212 11 G 21 68° 39% - - 42° 74.3° 54.5° - - -
4/28 6:00pm 211 10 G 18 68° 38% - - 42° 74.3° 54.5° - - -